地図

経路データ

SID SEASON NUMBER BASIN SUBBASIN NAME ISO_TIME NATURE LAT LON WMO_WIND WMO_PRES WMO_AGENCY TRACK_TYPE DIST2LAND LANDFALL IFLAG USA_AGENCY USA_ATCF_ID USA_LAT USA_LON USA_RECORD USA_STATUS USA_WIND USA_PRES USA_SSHS USA_R34_NE USA_R34_SE USA_R34_SW USA_R34_NW USA_R50_NE USA_R50_SE USA_R50_SW USA_R50_NW USA_R64_NE USA_R64_SE USA_R64_SW USA_R64_NW USA_POCI USA_ROCI USA_RMW USA_EYE TOKYO_LAT TOKYO_LON TOKYO_GRADE TOKYO_WIND TOKYO_PRES TOKYO_R50_DIR TOKYO_R50_LONG TOKYO_R50_SHORT TOKYO_R30_DIR TOKYO_R30_LONG TOKYO_R30_SHORT TOKYO_LAND CMA_LAT CMA_LON CMA_CAT CMA_WIND CMA_PRES HKO_LAT HKO_LON HKO_CAT HKO_WIND HKO_PRES NEWDELHI_LAT NEWDELHI_LON NEWDELHI_GRADE NEWDELHI_WIND NEWDELHI_PRES NEWDELHI_CI NEWDELHI_DP NEWDELHI_POCI REUNION_LAT REUNION_LON REUNION_TYPE REUNION_WIND REUNION_PRES REUNION_TNUM REUNION_CI REUNION_RMW REUNION_R34_NE REUNION_R34_SE REUNION_R34_SW REUNION_R34_NW REUNION_R50_NE REUNION_R50_SE REUNION_R50_SW REUNION_R50_NW REUNION_R64_NE REUNION_R64_SE REUNION_R64_SW REUNION_R64_NW BOM_LAT BOM_LON BOM_TYPE BOM_WIND BOM_PRES BOM_TNUM BOM_CI BOM_RMW BOM_R34_NE BOM_R34_SE BOM_R34_SW BOM_R34_NW BOM_R50_NE BOM_R50_SE BOM_R50_SW BOM_R50_NW BOM_R64_NE BOM_R64_SE BOM_R64_SW BOM_R64_NW BOM_ROCI BOM_POCI BOM_EYE BOM_POS_METHOD BOM_PRES_METHOD NADI_LAT NADI_LON NADI_CAT NADI_WIND NADI_PRES WELLINGTON_LAT WELLINGTON_LON WELLINGTON_WIND WELLINGTON_PRES DS824_LAT DS824_LON DS824_STAGE DS824_WIND DS824_PRES TD9636_LAT TD9636_LON TD9636_STAGE TD9636_WIND TD9636_PRES TD9635_LAT TD9635_LON TD9635_WIND TD9635_PRES TD9635_ROCI NEUMANN_LAT NEUMANN_LON NEUMANN_CLASS NEUMANN_WIND NEUMANN_PRES MLC_LAT MLC_LON MLC_CLASS MLC_WIND MLC_PRES USA_GUST BOM_GUST BOM_GUST_PER REUNION_GUST REUNION_GUST_PER USA_SEAHGT USA_SEARAD_NE USA_SEARAD_SE USA_SEARAD_SW USA_SEARAD_NW STORM_SPEED STORM_DIR
1978287N41329 1978 109 NA NA NOT_NAMED 1978-10-13 12:00:00 TS 40.5000 -31.0000 20 hurdat_atl main 1810 1810 O_____________ hurdat_atl AL211978 40.5000 -31.0000 TD 20 -1 9 206
1978287N41329 1978 109 NA NA NOT_NAMED 1978-10-13 15:00:00 TS 40.1101 -31.2505 main 1846 1846 P_____________ AL211978 40.1101 -31.2505 TD 20 -1 9 206
1978287N41329 1978 109 NA NA NOT_NAMED 1978-10-13 18:00:00 TS 39.7000 -31.5000 20 hurdat_atl main 1851 1837 O_____________ hurdat_atl AL211978 39.7000 -31.5000 TD 20 -1 9 204
1978287N41329 1978 109 NA NA NOT_NAMED 1978-10-13 21:00:00 TS 39.2574 -31.7498 main 1837 1824 P_____________ AL211978 39.2574 -31.7498 TD 20 -1 10 203
1978287N41329 1978 109 NA NA NOT_NAMED 1978-10-14 00:00:00 TS 38.8000 -32.0000 20 hurdat_atl main 1824 1812 O_____________ hurdat_atl AL211978 38.8000 -32.0000 TD 20 -1 10 203
1978287N41329 1978 109 NA NA NOT_NAMED 1978-10-14 03:00:00 TS 38.3499 -32.2497 main 1807 1804 P_____________ AL211978 38.3499 -32.2497 TD 20 -1 10 203
1978287N41329 1978 109 NA NA NOT_NAMED 1978-10-14 06:00:00 TS 37.9000 -32.5000 20 hurdat_atl main 1805 1790 O_____________ hurdat_atl AL211978 37.9000 -32.5000 TD 20 -1 10 201
1978287N41329 1978 109 NA NA NOT_NAMED 1978-10-14 09:00:00 TS 37.4196 -32.7120 main 1792 1789 P_____________ AL211978 37.4196 -32.7120 TD 20 -1 10 204
1978287N41329 1978 109 NA NA NOT_NAMED 1978-10-14 12:00:00 TS 37.0000 -33.0000 20 hurdat_atl main 1794 1794 O_____________ hurdat_atl AL211978 37.0000 -33.0000 TD 20 -1 9 221
1978287N41329 1978 109 NA NA NOT_NAMED 1978-10-14 15:00:00 TS 36.7202 -33.4622 main 1818 1818 P_____________ AL211978 36.7202 -33.4622 TD 20 -1 9 238
1978287N41329 1978 109 NA NA NOT_NAMED 1978-10-14 18:00:00 TS 36.5000 -34.0000 20 hurdat_atl main 1849 1849 O_____________ hurdat_atl AL211978 36.5000 -34.0000 TD 20 -1 10 241
1978287N41329 1978 109 NA NA NOT_NAMED 1978-10-14 21:00:00 TS 36.2498 -34.4997 main 1876 1876 P_____________ AL211978 36.2498 -34.4997 TD 22 -1 9 238
1978287N41329 1978 109 NA NA NOT_NAMED 1978-10-15 00:00:00 TS 36.0000 -35.0000 25 hurdat_atl main 1909 1895 O_____________ hurdat_atl AL211978 36.0000 -35.0000 TD 25 -1 10 238
1978287N41329 1978 109 NA NA NOT_NAMED 1978-10-15 03:00:00 TS 35.7498 -35.4997 main 1903 1886 P_____________ AL211978 35.7498 -35.4997 TD 25 -1 10 238
1978287N41329 1978 109 NA NA NOT_NAMED 1978-10-15 06:00:00 TS 35.5000 -36.0000 25 hurdat_atl main 1887 1879 O_____________ hurdat_atl AL211978 35.5000 -36.0000 TD 25 -1 10 236
1978287N41329 1978 109 NA NA NOT_NAMED 1978-10-15 09:00:00 TS 35.1973 -36.5006 main 1881 1867 P_____________ AL211978 35.1973 -36.5006 TD 27 -1 10 239
1978287N41329 1978 109 NA NA NOT_NAMED 1978-10-15 12:00:00 TS 35.0000 -37.0000 30 hurdat_atl main 1867 1837 O_____________ hurdat_atl AL211978 35.0000 -37.0000 TD 30 -1 8 259
1978287N41329 1978 109 NA NA NOT_NAMED 1978-10-15 15:00:00 TS 35.0398 -37.4993 main 1837 1791 P_____________ AL211978 35.0398 -37.4993 TD 30 -1 8 284
1978287N41329 1978 109 NA NA NOT_NAMED 1978-10-15 18:00:00 TS 35.2000 -38.0000 30 hurdat_atl main 1791 1753 O_____________ hurdat_atl AL211978 35.2000 -38.0000 TD 30 -1 9 290
1978287N41329 1978 109 NA NA NOT_NAMED 1978-10-15 21:00:00 TS 35.3423 -38.5000 main 1753 1707 P_____________ AL211978 35.3423 -38.5000 TD 30 -1 9 290
1978287N41329 1978 109 NA NA NOT_NAMED 1978-10-16 00:00:00 TS 35.5000 -39.0000 30 hurdat_atl main 1707 1670 O_____________ hurdat_atl AL211978 35.5000 -39.0000 TD 30 -1 9 291
1978287N41329 1978 109 NA NA NOT_NAMED 1978-10-16 03:00:00 TS 35.6573 -39.5000 main 1661 1625 P_____________ AL211978 35.6573 -39.5000 TD 30 -1 9 290
1978287N41329 1978 109 NA NA NOT_NAMED 1978-10-16 06:00:00 TS 35.8000 -40.0000 30 hurdat_atl main 1625 1597 O_____________ hurdat_atl AL211978 35.8000 -40.0000 TD 30 -1 9 282
1978287N41329 1978 109 NA NA NOT_NAMED 1978-10-16 09:00:00 TS 35.8479 -40.5753 main 1592 1552 P_____________ AL211978 35.8479 -40.5753 TD 30 -1 8 284
1978287N41329 1978 109 NA NA NOT_NAMED 1978-10-16 12:00:00 TS 36.0000 -41.0000 30 hurdat_atl main 1552 1511 O_____________ hurdat_atl AL211978 36.0000 -41.0000 TD 30 -1 7 326
1978287N41329 1978 109 NA NA NOT_NAMED 1978-10-16 15:00:00 TS 36.4397 -41.0756 main 1511 1465 P_____________ AL211978 36.4397 -41.0756 TD 30 -1 10 1
1978287N41329 1978 109 NA NA NOT_NAMED 1978-10-16 18:00:00 TS 37.0000 -41.0000 30 hurdat_atl main 1465 1422 O_____________ hurdat_atl AL211978 37.0000 -41.0000 TD 30 -1 11 3
1978287N41329 1978 109 NA NA NOT_NAMED 1978-10-16 21:00:00 TS 37.5000 -41.0000 main 1422 1380 P_____________ AL211978 37.5000 -41.0000 TD 30 -1 10 1
1978287N41329 1978 109 NA NA NOT_NAMED 1978-10-17 00:00:00 TS 38.0000 -41.0000 30 hurdat_atl main 1380 1340 O_____________ hurdat_atl AL211978 38.0000 -41.0000 TD 30 -1 10 1
1978287N41329 1978 109 NA NA NOT_NAMED 1978-10-17 03:00:00 TS 38.5000 -41.0000 main 1340 1300 P_____________ AL211978 38.5000 -41.0000 TD 27 -1 10 1
1978287N41329 1978 109 NA NA NOT_NAMED 1978-10-17 06:00:00 TS 39.0000 -41.0000 25 hurdat_atl main 1300 1262 O_____________ hurdat_atl AL211978 39.0000 -41.0000 TD 25 -1 10 357
1978287N41329 1978 109 NA NA NOT_NAMED 1978-10-17 09:00:00 TS 39.4999 -41.0367 main 1262 1224 P_____________ AL211978 39.4999 -41.0367 TD 25 -1 10 1
1978287N41329 1978 109 NA NA NOT_NAMED 1978-10-17 12:00:00 TS 40.0000 -41.0000 25 hurdat_atl main 1224 1200 O_____________ hurdat_atl AL211978 40.0000 -41.0000 TD 25 -1 10 10
1978287N41329 1978 109 NA NA NOT_NAMED 1978-10-17 15:00:00 TS 40.5003 -40.8015 main 1200 1185 P_____________ AL211978 40.5003 -40.8015 TD 22 -1 11 21
1978287N41329 1978 109 NA NA NOT_NAMED 1978-10-17 18:00:00 TS 41.0000 -40.5000 20 hurdat_atl main 1185 O_____________ hurdat_atl AL211978 41.0000 -40.5000 TD 20 -1 11 25

IBTrACS Databaseについて

本データベースは、米国NOAAが公開する1842年以降の世界の熱帯低気圧のベストトラックデータアーカイブInternational Best Track Archive for Climate Stewardship (IBTrACS)を、ウェブで閲覧しやすい形式に変換したものです。

最終更新日:2021-10-08